createdAt,value
2019-03-27T00:00:10.444Z,10.03
2019-03-27T00:02:39.491Z,10.00
2019-03-27T00:05:08.362Z,10.13
2019-03-27T00:07:37.215Z,10.10
2019-03-27T00:10:07.684Z,9.98
2019-03-27T00:12:36.903Z,9.98
2019-03-27T00:15:13.191Z,10.75
2019-03-27T00:17:38.494Z,9.73
2019-03-27T00:20:08.855Z,8.95
2019-03-27T00:22:37.789Z,9.63
2019-03-27T00:25:08.328Z,10.70
2019-03-27T00:27:37.334Z,9.70
2019-03-27T00:30:06.848Z,10.80
2019-03-27T00:32:35.739Z,11.25
2019-03-27T00:35:04.872Z,11.30
2019-03-27T00:37:33.656Z,10.25
2019-03-27T00:40:02.556Z,10.08
2019-03-27T00:42:31.341Z,9.78
2019-03-27T00:45:00.389Z,12.20
2019-03-27T00:47:29.175Z,11.25
2019-03-27T00:49:57.909Z,10.13
2019-03-27T00:52:26.671Z,11.15
2019-03-27T00:54:55.942Z,10.55
2019-03-27T00:57:24.747Z,11.80
2019-03-27T00:59:53.635Z,9.90
2019-03-27T01:02:22.369Z,10.75
2019-03-27T01:04:51.113Z,11.93
2019-03-27T01:07:19.867Z,12.70
2019-03-27T01:09:48.917Z,9.80
2019-03-27T01:12:17.885Z,10.48
2019-03-27T01:14:46.948Z,11.48
2019-03-27T01:17:15.771Z,11.50
2019-03-27T01:19:44.752Z,11.10
2019-03-27T01:22:13.572Z,11.93
2019-03-27T01:24:42.586Z,11.45
2019-03-27T01:27:11.291Z,10.70
2019-03-27T01:29:40.211Z,12.65
2019-03-27T01:32:09.306Z,10.85
2019-03-27T01:34:38.206Z,11.12
2019-03-27T01:37:07.428Z,11.75
2019-03-27T01:39:36.132Z,12.33
2019-03-27T01:42:05.620Z,10.63
2019-03-27T01:44:34.399Z,12.40
2019-03-27T01:47:03.182Z,11.55
2019-03-27T01:49:32.214Z,11.95
2019-03-27T01:52:00.897Z,12.40
2019-03-27T01:54:29.609Z,11.85
2019-03-27T01:56:58.873Z,12.07
2019-03-27T01:59:27.683Z,12.28
2019-03-27T02:01:56.547Z,12.43
2019-03-27T02:04:25.486Z,11.22
2019-03-27T02:06:54.155Z,13.68
2019-03-27T02:09:22.853Z,12.28
2019-03-27T02:11:51.665Z,12.55
2019-03-27T02:14:20.477Z,11.83
2019-03-27T02:16:49.233Z,11.60
2019-03-27T02:19:18.453Z,11.28
2019-03-27T02:21:47.838Z,12.73
2019-03-27T02:24:16.682Z,10.93
2019-03-27T02:26:45.464Z,11.65
2019-03-27T02:29:14.307Z,11.75
2019-03-27T02:31:43.406Z,12.37
2019-03-27T02:34:12.283Z,12.37
2019-03-27T02:36:41.138Z,12.10
2019-03-27T02:39:09.986Z,12.73
2019-03-27T02:41:38.900Z,12.13
2019-03-27T02:44:07.600Z,10.80
2019-03-27T02:46:36.331Z,10.60
2019-03-27T02:49:05.142Z,12.20
2019-03-27T02:51:34.038Z,12.40
2019-03-27T02:54:02.788Z,12.55
2019-03-27T02:56:31.643Z,11.65
2019-03-27T02:59:00.691Z,11.18
2019-03-27T03:01:29.483Z,12.05
2019-03-27T03:03:58.265Z,12.10
2019-03-27T03:06:27.445Z,11.97
2019-03-27T03:08:56.204Z,10.70
2019-03-27T03:11:25.406Z,14.33
2019-03-27T03:13:54.397Z,11.53
2019-03-27T03:16:40.948Z,12.20
2019-03-27T03:18:54.372Z,12.15
2019-03-27T03:21:23.148Z,13.55
2019-03-27T03:23:52.454Z,13.78
2019-03-27T03:26:21.543Z,13.90
2019-03-27T03:28:50.465Z,13.25
2019-03-27T03:31:19.459Z,13.15
2019-03-27T03:33:48.769Z,16.10
2019-03-27T03:36:17.739Z,15.13
2019-03-27T03:38:46.506Z,13.75
2019-03-27T03:41:15.402Z,13.45
2019-03-27T03:43:44.161Z,14.03
2019-03-27T03:46:12.878Z,15.38
2019-03-27T03:48:41.885Z,14.90
2019-03-27T03:51:10.987Z,14.95
2019-03-27T03:53:39.857Z,14.70
2019-03-27T03:56:09.913Z,13.95
2019-03-27T03:58:40.698Z,13.55
2019-03-27T04:01:11.287Z,15.50
2019-03-27T04:03:42.353Z,14.35
2019-03-27T04:06:11.316Z,12.70
2019-03-27T04:08:40.391Z,14.73
2019-03-27T04:11:09.169Z,14.13
2019-03-27T04:13:38.544Z,14.93
2019-03-27T04:16:07.515Z,14.75
2019-03-27T04:18:36.425Z,13.95
2019-03-27T04:21:05.381Z,15.00
2019-03-27T04:23:34.545Z,13.53
2019-03-27T04:26:09.712Z,15.78
2019-03-27T04:28:34.315Z,15.53
2019-03-27T04:31:03.205Z,14.68
2019-03-27T04:33:32.120Z,12.95
2019-03-27T04:36:01.362Z,14.50
2019-03-27T04:38:30.319Z,15.45
2019-03-27T04:40:59.331Z,13.80
2019-03-27T04:43:28.162Z,14.63
2019-03-27T04:45:57.077Z,14.38
2019-03-27T04:48:25.900Z,14.78
2019-03-27T04:50:54.789Z,14.75
2019-03-27T04:53:23.663Z,16.82
2019-03-27T04:55:52.613Z,15.08
2019-03-27T04:58:21.431Z,14.20
2019-03-27T05:00:50.225Z,16.75
2019-03-27T05:03:18.909Z,15.88
2019-03-27T05:05:47.779Z,13.75
2019-03-27T05:08:16.534Z,13.85
2019-03-27T05:10:45.286Z,15.08
2019-03-27T05:13:14.088Z,13.83
2019-03-27T05:15:42.954Z,15.60
2019-03-27T05:18:11.744Z,16.40
2019-03-27T05:20:40.629Z,13.85
2019-03-27T05:23:09.758Z,13.28
2019-03-27T05:25:38.573Z,13.75
2019-03-27T05:28:07.455Z,16.00
2019-03-27T05:30:36.530Z,14.45
2019-03-27T05:33:05.181Z,14.98
2019-03-27T05:35:34.018Z,13.08
2019-03-27T05:38:02.956Z,13.93
2019-03-27T05:40:31.757Z,14.25
2019-03-27T05:43:01.366Z,14.10
2019-03-27T05:45:30.831Z,14.43
2019-03-27T05:48:00.150Z,13.18
2019-03-27T05:50:29.442Z,13.40
2019-03-27T05:52:58.273Z,15.05
2019-03-27T05:55:27.263Z,13.88
2019-03-27T05:57:56.233Z,13.48
2019-03-27T06:00:25.172Z,14.07
2019-03-27T06:02:54.354Z,15.65
2019-03-27T06:05:23.167Z,15.00
2019-03-27T06:07:51.915Z,15.08
2019-03-27T06:10:21.021Z,15.85
2019-03-27T06:12:49.846Z,16.48
2019-03-27T06:15:18.860Z,16.55
2019-03-27T06:17:47.559Z,16.73
2019-03-27T06:20:16.543Z,16.30
2019-03-27T06:22:45.298Z,17.23
2019-03-27T06:25:14.480Z,17.42
2019-03-27T06:27:43.278Z,17.40
2019-03-27T06:30:12.262Z,17.67
2019-03-27T06:32:41.499Z,16.42
2019-03-27T06:35:10.507Z,16.80
2019-03-27T06:37:39.550Z,16.48
2019-03-27T06:40:08.706Z,15.93
2019-03-27T06:42:37.594Z,16.82
2019-03-27T06:45:08.179Z,17.37
2019-03-27T06:47:36.961Z,17.20
2019-03-27T06:50:07.225Z,15.85
2019-03-27T06:52:35.997Z,16.15
2019-03-27T06:55:07.374Z,15.68
2019-03-27T06:57:37.180Z,17.15
2019-03-27T07:00:09.611Z,15.88
2019-03-27T07:02:38.971Z,16.57
2019-03-27T07:05:08.120Z,16.50
2019-03-27T07:07:37.233Z,16.32
2019-03-27T07:10:06.704Z,17.25
2019-03-27T07:12:35.448Z,16.80
2019-03-27T07:15:05.362Z,15.55
2019-03-27T07:17:34.202Z,17.12
2019-03-27T07:20:03.650Z,19.65
2019-03-27T07:22:32.390Z,17.52
2019-03-27T07:25:01.277Z,17.85
2019-03-27T07:27:30.429Z,18.55
2019-03-27T07:29:59.356Z,16.02
2019-03-27T07:32:28.710Z,16.12
2019-03-27T07:34:57.416Z,16.70
2019-03-27T07:37:26.253Z,18.60
2019-03-27T07:39:55.104Z,17.10
2019-03-27T07:42:24.005Z,18.25
2019-03-27T07:44:52.979Z,15.65
2019-03-27T07:47:21.842Z,16.05
2019-03-27T07:49:50.910Z,16.62
2019-03-27T07:52:20.153Z,16.50
2019-03-27T07:54:49.098Z,18.30
2019-03-27T07:57:18.028Z,19.15
2019-03-27T07:59:46.971Z,18.05
2019-03-27T08:02:16.282Z,17.32
2019-03-27T08:04:45.439Z,14.90
2019-03-27T08:07:26.158Z,17.25
2019-03-27T08:09:46.054Z,16.35
2019-03-27T08:12:15.248Z,17.12
2019-03-27T08:14:44.061Z,16.10
2019-03-27T08:17:13.478Z,16.50
2019-03-27T08:19:42.387Z,14.38
2019-03-27T08:22:11.746Z,13.25
2019-03-27T08:24:40.722Z,13.00
2019-03-27T08:27:09.473Z,12.23
2019-03-27T08:29:38.511Z,10.90
2019-03-27T08:32:07.499Z,12.58
2019-03-27T08:34:36.294Z,11.55
2019-03-27T08:37:05.229Z,9.85
2019-03-27T08:39:34.096Z,10.80
2019-03-27T08:42:02.893Z,11.10
2019-03-27T08:44:31.705Z,12.03
2019-03-27T08:47:00.527Z,12.82
2019-03-27T08:49:29.478Z,10.70
2019-03-27T08:51:58.284Z,10.03
2019-03-27T08:54:27.100Z,10.10
2019-03-27T08:56:55.997Z,11.00
2019-03-27T08:59:24.985Z,10.72
2019-03-27T09:01:53.825Z,10.43
2019-03-27T09:04:23.243Z,10.55
2019-03-27T09:06:52.253Z,9.90
2019-03-27T09:09:21.539Z,10.18
2019-03-27T09:11:50.606Z,9.73
2019-03-27T09:14:19.617Z,9.18
2019-03-27T09:16:48.815Z,10.85
2019-03-27T09:19:17.824Z,10.18
2019-03-27T09:21:46.722Z,9.98
2019-03-27T09:24:15.762Z,9.33
2019-03-27T09:26:44.573Z,9.85
2019-03-27T09:29:13.827Z,9.35
2019-03-27T09:31:45.189Z,11.00
2019-03-27T09:34:13.703Z,13.28
2019-03-27T09:36:42.537Z,9.50
2019-03-27T09:39:11.429Z,8.83
2019-03-27T09:41:40.390Z,10.75
2019-03-27T09:44:09.333Z,9.58
2019-03-27T09:46:38.518Z,10.00
2019-03-27T09:49:07.569Z,10.78
2019-03-27T09:51:36.614Z,11.70
2019-03-27T09:54:05.825Z,8.95
2019-03-27T09:56:34.788Z,11.33
2019-03-27T09:59:06.038Z,9.75
2019-03-27T10:01:34.696Z,7.87
2019-03-27T10:04:03.606Z,8.33
2019-03-27T10:06:32.911Z,8.43
2019-03-27T10:09:01.891Z,9.40
2019-03-27T10:11:30.753Z,9.08
2019-03-27T10:13:59.862Z,9.23
2019-03-27T10:16:28.612Z,8.58
2019-03-27T10:18:57.763Z,9.80
2019-03-27T10:21:26.583Z,11.00
2019-03-27T10:23:55.525Z,9.15
2019-03-27T10:26:24.385Z,8.80
2019-03-27T10:28:53.131Z,7.95
2019-03-27T10:31:21.939Z,8.70
2019-03-27T10:33:51.028Z,9.30
2019-03-27T10:36:20.185Z,10.38
2019-03-27T10:38:49.929Z,11.83
2019-03-27T10:41:18.815Z,11.50
2019-03-27T10:43:47.552Z,9.93
2019-03-27T10:46:16.296Z,10.03
2019-03-27T10:48:52.345Z,12.00
2019-03-27T10:51:15.980Z,10.00
2019-03-27T10:53:44.761Z,10.58
2019-03-27T10:56:14.001Z,10.72
2019-03-27T10:58:42.867Z,10.32
2019-03-27T11:01:12.198Z,11.40
2019-03-27T11:03:41.328Z,12.55
2019-03-27T11:06:10.330Z,10.55
2019-03-27T11:08:39.206Z,9.45
2019-03-27T11:11:08.206Z,10.63
2019-03-27T11:13:37.034Z,9.08
2019-03-27T11:16:05.851Z,9.10
2019-03-27T11:18:34.695Z,10.82
2019-03-27T11:21:03.614Z,9.28
2019-03-27T11:23:32.367Z,9.15
2019-03-27T11:26:01.145Z,9.33
2019-03-27T11:28:30.626Z,9.40
2019-03-27T11:30:59.560Z,8.35
2019-03-27T11:33:28.992Z,9.60
2019-03-27T11:35:58.004Z,8.00
2019-03-27T11:38:27.122Z,7.35
2019-03-27T11:40:56.217Z,7.20
2019-03-27T11:43:25.327Z,6.65
2019-03-27T11:45:54.041Z,6.45
2019-03-27T11:48:22.937Z,6.80
2019-03-27T11:50:52.066Z,6.87
2019-03-27T11:53:20.953Z,6.47
2019-03-27T11:55:49.920Z,6.53
2019-03-27T11:58:19.838Z,6.05
2019-03-27T12:00:54.781Z,5.87
2019-03-27T12:03:19.299Z,5.05
2019-03-27T12:05:48.709Z,6.15
2019-03-27T12:08:17.837Z,6.45
2019-03-27T12:10:46.771Z,5.45
2019-03-27T12:13:17.324Z,6.05
2019-03-27T12:15:46.150Z,6.05
2019-03-27T12:18:16.435Z,6.33
2019-03-27T12:20:58.171Z,5.08
2019-03-27T12:23:16.263Z,5.70
2019-03-27T12:25:45.149Z,4.35
2019-03-27T12:28:14.072Z,4.83
2019-03-27T12:30:43.047Z,5.20
2019-03-27T12:33:11.884Z,5.25
2019-03-27T12:35:41.374Z,5.35
2019-03-27T12:38:10.193Z,4.53
2019-03-27T12:40:39.082Z,4.45
2019-03-27T12:43:08.088Z,6.03
2019-03-27T12:45:36.825Z,4.42
2019-03-27T12:48:06.468Z,4.53
2019-03-27T12:50:35.943Z,4.70
2019-03-27T12:53:05.157Z,5.42
2019-03-27T12:55:34.264Z,4.62
2019-03-27T12:58:03.219Z,4.90
2019-03-27T13:00:32.298Z,4.30
2019-03-27T13:03:01.237Z,4.60
2019-03-27T13:05:29.994Z,3.87
2019-03-27T13:07:59.007Z,4.12
2019-03-27T13:10:27.878Z,3.90
2019-03-27T13:12:56.818Z,3.25
2019-03-27T13:15:25.680Z,4.00
2019-03-27T13:17:54.680Z,4.50
2019-03-27T13:20:23.712Z,4.22
2019-03-27T13:22:52.660Z,4.35
2019-03-27T13:25:21.399Z,3.67
2019-03-27T13:27:50.296Z,3.45
2019-03-27T13:30:19.510Z,3.52
2019-03-27T13:32:49.018Z,4.12
2019-03-27T13:35:17.755Z,3.58
2019-03-27T13:37:46.671Z,3.17
2019-03-27T13:40:16.216Z,3.42
2019-03-27T13:42:45.174Z,3.08
2019-03-27T13:45:14.823Z,3.75
2019-03-27T13:47:44.091Z,3.77
2019-03-27T13:50:14.829Z,3.70
2019-03-27T13:52:44.017Z,3.15
2019-03-27T13:55:13.131Z,4.15
2019-03-27T13:57:41.920Z,3.30
2019-03-27T14:00:12.151Z,2.87
2019-03-27T14:02:40.907Z,3.67
2019-03-27T14:05:10.748Z,2.90
2019-03-27T14:07:39.738Z,3.70
2019-03-27T14:10:08.971Z,4.35
2019-03-27T14:12:37.894Z,3.90
2019-03-27T14:15:08.127Z,3.22
2019-03-27T14:17:37.012Z,3.77
2019-03-27T14:20:07.952Z,3.92
2019-03-27T14:22:37.007Z,2.62
2019-03-27T14:25:08.050Z,2.37
2019-03-27T14:27:37.019Z,3.22
2019-03-27T14:30:10.240Z,3.17
2019-03-27T14:32:39.276Z,2.50
2019-03-27T14:35:10.347Z,2.50
2019-03-27T14:37:39.324Z,3.02
2019-03-27T14:40:09.690Z,2.50
2019-03-27T14:42:38.762Z,2.70
2019-03-27T14:45:09.768Z,2.50
2019-03-27T14:47:39.096Z,3.00
2019-03-27T14:50:09.420Z,2.72
2019-03-27T14:52:38.921Z,2.35
2019-03-27T14:55:08.943Z,2.27
2019-03-27T14:57:38.533Z,1.98
2019-03-27T15:00:09.727Z,2.70
2019-03-27T15:02:38.764Z,2.33
2019-03-27T15:05:08.290Z,2.65
2019-03-27T15:07:37.272Z,2.55
2019-03-27T15:10:07.936Z,2.37
2019-03-27T15:12:36.797Z,2.00
2019-03-27T15:15:06.894Z,1.98
2019-03-27T15:17:35.772Z,2.10
2019-03-27T15:20:05.803Z,2.40
2019-03-27T15:22:37.468Z,1.92
2019-03-27T15:25:07.526Z,1.80
2019-03-27T15:27:36.744Z,1.87
2019-03-27T15:30:08.014Z,1.90
2019-03-27T15:32:36.837Z,2.00
2019-03-27T15:35:08.076Z,1.40
2019-03-27T15:37:37.251Z,2.10
2019-03-27T15:40:10.008Z,3.37
2019-03-27T15:42:39.777Z,2.95
2019-03-27T15:45:09.597Z,2.98
2019-03-27T15:47:51.594Z,3.20
2019-03-27T15:50:20.681Z,3.22
2019-03-27T15:52:49.544Z,2.58
2019-03-27T15:55:18.508Z,3.60
2019-03-27T15:57:47.236Z,3.00
2019-03-27T16:00:16.339Z,3.40
2019-03-27T16:02:45.150Z,3.22
2019-03-27T16:05:14.161Z,3.10
2019-03-27T16:07:43.011Z,3.37
2019-03-27T16:10:12.064Z,2.77
2019-03-27T16:12:41.476Z,3.00
2019-03-27T16:15:10.691Z,2.37
2019-03-27T16:17:39.514Z,1.85
2019-03-27T16:20:08.879Z,2.60
2019-03-27T16:22:50.044Z,2.37
2019-03-27T16:25:08.544Z,2.45
2019-03-27T16:27:37.478Z,2.75
2019-03-27T16:30:06.830Z,3.08
2019-03-27T16:32:35.610Z,2.52
2019-03-27T16:35:04.827Z,3.55
2019-03-27T16:37:33.771Z,4.00
2019-03-27T16:40:03.262Z,3.20
2019-03-27T16:42:32.069Z,3.47
2019-03-27T16:45:00.992Z,3.52
2019-03-27T16:47:29.906Z,3.77
2019-03-27T16:49:58.729Z,2.77
2019-03-27T16:52:28.155Z,3.30
2019-03-27T16:54:56.998Z,3.85
2019-03-27T16:57:25.974Z,3.02
2019-03-27T16:59:54.766Z,4.12
2019-03-27T17:02:23.621Z,3.42
2019-03-27T17:04:53.066Z,4.28
2019-03-27T17:07:21.834Z,3.87
2019-03-27T17:09:50.783Z,4.30
2019-03-27T17:12:19.794Z,3.70
2019-03-27T17:14:49.177Z,3.67
2019-03-27T17:17:18.120Z,3.52
2019-03-27T17:19:47.565Z,3.35
2019-03-27T17:22:19.699Z,3.85
2019-03-27T17:24:47.144Z,4.03
2019-03-27T17:27:16.080Z,3.83
2019-03-27T17:29:48.270Z,3.98
2019-03-27T17:32:17.135Z,3.72
2019-03-27T17:34:46.097Z,3.62
2019-03-27T17:37:15.120Z,4.37
2019-03-27T17:39:43.835Z,4.22
2019-03-27T17:42:13.177Z,5.03
2019-03-27T17:44:42.125Z,6.60
2019-03-27T17:47:11.295Z,5.17
2019-03-27T17:49:40.063Z,4.55
2019-03-27T17:52:08.833Z,4.78
2019-03-27T17:54:37.866Z,4.50
2019-03-27T17:57:06.972Z,5.15
2019-03-27T17:59:35.883Z,5.00
2019-03-27T18:02:04.725Z,5.25
2019-03-27T18:04:33.595Z,4.70
2019-03-27T18:07:02.939Z,4.70
2019-03-27T18:09:32.366Z,4.58
2019-03-27T18:12:01.365Z,4.00
2019-03-27T18:14:30.329Z,3.35
2019-03-27T18:16:59.407Z,2.65
2019-03-27T18:19:28.414Z,3.10
2019-03-27T18:22:07.139Z,3.42
2019-03-27T18:24:27.947Z,2.95
2019-03-27T18:26:57.315Z,2.90
2019-03-27T18:29:26.243Z,2.95
2019-03-27T18:31:55.147Z,2.98
2019-03-27T18:34:23.871Z,2.45
2019-03-27T18:36:52.949Z,2.85
2019-03-27T18:39:21.706Z,2.83
2019-03-27T18:41:50.627Z,2.37
2019-03-27T18:44:19.823Z,3.10
2019-03-27T18:46:48.631Z,4.12
2019-03-27T18:49:17.668Z,3.33
2019-03-27T18:51:46.609Z,3.90
2019-03-27T18:54:15.430Z,3.72
2019-03-27T18:56:44.353Z,3.60
2019-03-27T18:59:13.479Z,3.20
2019-03-27T19:01:42.284Z,4.40
2019-03-27T19:04:11.582Z,3.65
2019-03-27T19:06:40.716Z,3.60
2019-03-27T19:09:09.737Z,3.05
2019-03-27T19:11:38.586Z,4.42
2019-03-27T19:14:07.763Z,4.30
2019-03-27T19:16:36.631Z,3.83
2019-03-27T19:19:05.819Z,3.98
2019-03-27T19:21:34.605Z,3.92
2019-03-27T19:24:14.762Z,5.55
2019-03-27T19:26:34.958Z,4.42
2019-03-27T19:29:04.207Z,3.90
2019-03-27T19:31:33.625Z,4.92
2019-03-27T19:34:02.641Z,4.53
2019-03-27T19:36:31.578Z,5.90
2019-03-27T19:39:00.420Z,5.95
2019-03-27T19:41:29.441Z,4.87
2019-03-27T19:43:58.973Z,4.17
2019-03-27T19:46:27.970Z,4.17
2019-03-27T19:48:56.946Z,4.83
2019-03-27T19:51:25.848Z,4.10
2019-03-27T19:53:54.680Z,4.20
2019-03-27T19:56:23.540Z,4.28
2019-03-27T19:58:52.461Z,4.58
2019-03-27T20:01:21.358Z,4.58
2019-03-27T20:03:50.527Z,4.28
2019-03-27T20:06:19.477Z,4.22
2019-03-27T20:08:48.692Z,4.53
2019-03-27T20:11:17.546Z,4.58
2019-03-27T20:13:46.663Z,4.12
2019-03-27T20:16:15.749Z,3.98
2019-03-27T20:18:44.763Z,5.17
2019-03-27T20:21:13.841Z,4.65
2019-03-27T20:23:43.162Z,4.60
2019-03-27T20:26:13.028Z,4.45
2019-03-27T20:28:42.456Z,5.85
2019-03-27T20:31:11.791Z,4.05
2019-03-27T20:33:40.687Z,4.00
2019-03-27T20:36:09.495Z,4.42
2019-03-27T20:38:38.317Z,4.37
2019-03-27T20:41:07.147Z,4.62
2019-03-27T20:43:36.067Z,5.28
2019-03-27T20:46:04.987Z,4.53
2019-03-27T20:48:33.803Z,4.30
2019-03-27T20:51:02.912Z,4.22
2019-03-27T20:53:31.881Z,4.35
2019-03-27T20:56:00.751Z,4.80
2019-03-27T20:58:30.034Z,4.60
2019-03-27T21:00:58.968Z,5.17
2019-03-27T21:03:27.839Z,4.90
2019-03-27T21:05:56.838Z,5.37
2019-03-27T21:08:25.722Z,5.33
2019-03-27T21:10:54.581Z,5.05
2019-03-27T21:13:23.709Z,6.35
2019-03-27T21:15:52.545Z,4.67
2019-03-27T21:18:21.427Z,4.97
2019-03-27T21:20:50.279Z,5.62
2019-03-27T21:23:19.181Z,5.55
2019-03-27T21:25:48.113Z,6.60
2019-03-27T21:28:16.968Z,6.30
2019-03-27T21:30:45.863Z,5.17
2019-03-27T21:33:14.954Z,5.60
2019-03-27T21:35:43.620Z,4.62
2019-03-27T21:38:12.501Z,5.50
2019-03-27T21:40:41.343Z,5.67
2019-03-27T21:43:10.317Z,6.78
2019-03-27T21:45:39.160Z,4.85
2019-03-27T21:48:08.461Z,5.17
2019-03-27T21:50:37.696Z,6.05
2019-03-27T21:53:06.540Z,4.90
2019-03-27T21:55:42.605Z,6.25
2019-03-27T21:58:06.410Z,5.87
2019-03-27T22:00:39.536Z,7.20
2019-03-27T22:03:08.975Z,6.42
2019-03-27T22:05:37.865Z,6.28
2019-03-27T22:08:06.897Z,7.55
2019-03-27T22:10:35.842Z,8.18
2019-03-27T22:13:04.936Z,7.00
2019-03-27T22:15:34.000Z,7.75
2019-03-27T22:18:02.867Z,9.20
2019-03-27T22:20:32.171Z,6.87
2019-03-27T22:23:01.060Z,7.42
2019-03-27T22:25:35.837Z,7.15
2019-03-27T22:28:00.806Z,6.92
2019-03-27T22:30:29.751Z,7.80
2019-03-27T22:32:58.540Z,7.70
2019-03-27T22:35:27.492Z,6.75
2019-03-27T22:37:56.261Z,7.58
2019-03-27T22:40:25.217Z,7.97
2019-03-27T22:42:56.819Z,8.88
2019-03-27T22:45:24.958Z,9.80
2019-03-27T22:47:53.756Z,8.20
2019-03-27T22:50:22.783Z,5.97
2019-03-27T22:52:51.669Z,7.58
2019-03-27T22:55:21.057Z,7.15
2019-03-27T22:57:49.986Z,6.78
2019-03-27T23:00:21.255Z,6.83
2019-03-27T23:02:50.058Z,7.55
2019-03-27T23:05:19.186Z,6.92
2019-03-27T23:07:48.036Z,7.15
2019-03-27T23:10:16.860Z,6.67
2019-03-27T23:12:45.682Z,7.40
2019-03-27T23:15:15.664Z,8.63
2019-03-27T23:17:44.942Z,7.70
2019-03-27T23:20:13.935Z,8.38
2019-03-27T23:22:42.693Z,6.90
2019-03-27T23:25:11.756Z,7.10
2019-03-27T23:27:40.509Z,6.72
2019-03-27T23:30:10.725Z,7.58
2019-03-27T23:32:39.486Z,8.10
2019-03-27T23:35:08.551Z,6.50
2019-03-27T23:37:37.388Z,7.72
2019-03-27T23:40:08.614Z,7.85
2019-03-27T23:42:37.551Z,6.87
2019-03-27T23:45:07.786Z,8.03
2019-03-27T23:47:36.570Z,7.83
2019-03-27T23:50:06.276Z,8.90
2019-03-27T23:52:35.699Z,12.23
2019-03-27T23:55:04.827Z,12.60
2019-03-27T23:57:33.682Z,13.50
